x

8726724 - Clearwater Beach, Fl (cwbf1) Weather Station

7:00pm - Tue 30th Sep 2014 All times are EDT. -4 hours from GMT.

  • Wind
    3mph, 5mph gusts
  • Sea Temp 83°f
  • Air Temp 81°f
  • Sea Pressure 1009.5mb
  • 8726724 - Clearwater Beach, Fl
  • 8726724 - Clearwater Beach, Fl

More Historic Weather Station data

Upgrade to MSW Pro to gain access to the past 30 days of data for over 8000 Wavebouys and Weather Stations around the globe.

Join Pro

Comparision Forecast

View Surf forecast
   
Tue 09/30 7:00pm 3 5 mph 1009.5mb 83f 81f
6:54pm 1 3 mph 1009.4mb 83f 81f
6:48pm 1 2 mph 1009.4mb 83f 82f
6:42pm  -  2 mph 1009.4mb 83f 82f
6:36pm  -  2 mph 1009.4mb 83f 82f
6:30pm 2 3 mph 1009.3mb 83f 81f
6:24pm 2 3 mph 1009.3mb 83f 82f
6:18pm 2 3 mph 1009.2mb 83f 81f
6:12pm 3
mph
1009.2mb 83f 81f
6:06pm 2
mph
1009.2mb 83f 82f
6:00pm 2 3 mph 1009.2mb 83f 82f
5:54pm 2 3 mph 1009.2mb 83f 82f
5:48pm 2 6 mph 1009.2mb 83f 82f
5:42pm 6 7 mph 1009.2mb 83f 81f
5:36pm 3 6 mph 1009.2mb 83f 82f
5:30pm 3 5 mph 1009.2mb 83f 82f
5:24pm 3 5 mph 1009.3mb 83f 82f
5:18pm 1 5 mph 1009.2mb 83f 83f
5:12pm 2 6 mph 1009.3mb 83f 81f
5:06pm 5 6 mph 1009.2mb 83f 80f
5:00pm 3 5 mph 1009.1mb 83f 81f
4:54pm 3
mph
1009.1mb 83f 80f
4:48pm 2 3 mph 1009.1mb 83f 80f
4:42pm 1 3 mph 1009.2mb 83f 81f
4:36pm 2 3 mph 1009.4mb 83f 81f
4:30pm 2 3 mph 1009.4mb 83f 81f
4:24pm 3 5 mph 1009.3mb 83f 80f
4:18pm 3 5 mph 1009.4mb 83f 80f
4:12pm 5 6 mph 1009.3mb 83f 80f
4:06pm 5 6 mph 1009.4mb 83f 80f
4:00pm 5 7 mph 1009.4mb 83f 81f
3:54pm 6 7 mph 1009.3mb 83f 81f
3:48pm 5 6 mph 1009.3mb 83f 81f
3:42pm 5 6 mph 1009.2mb 83f 81f
3:36pm 5 6 mph 1009.3mb 83f 80f
3:30pm 6 8 mph 1009.3mb 83f 80f
3:24pm 6 7 mph 1009.4mb 83f 80f
3:18pm 6 7 mph 1009.5mb 83f 79f
3:12pm 3 5 mph 1009.7mb 83f 80f
3:06pm 2 3 mph 1009.7mb 83f 79f
3:00pm 1 3 mph 1009.9mb 83f 79f
2:54pm 3 6 mph 1009.8mb 83f 80f
2:48pm 6 13 mph 1009.7mb 83f 80f
2:42pm 11 14 mph 1009.9mb 83f 80f
2:36pm 10 13 mph 1009.9mb 83f 81f
2:30pm 11 17 mph 1010.1mb 83f 81f
2:24pm 17 20 mph 1010.2mb 83f 81f
2:18pm 16 21 mph 1010.1mb 83f 82f
2:12pm 13 16 mph 1010.1mb 83f 83f
2:06pm 15 16 mph 1010.1mb 83f 82f
2:00pm 13 15 mph 1010.1mb 83f 83f
1:54pm 13 15 mph 1010.3mb 83f 83f
1:48pm 13 14 mph 1010.5mb 83f 83f
1:42pm 11 14 mph 1010.6mb 83f 83f
1:36pm 11 14 mph 1010.6mb 83f 83f
1:30pm 14 16 mph 1010.5mb 82f 83f
1:24pm 14 16 mph 1010.4mb 82f 83f
1:18pm 16 17 mph 1010.5mb 82f 83f
1:12pm 13 15 mph 1010.7mb 82f 83f
1:06pm 13 15 mph 1010.6mb 82f 83f
1:00pm 14 15 mph 1010.6mb 82f 83f
12:54pm 13 14 mph 1010.7mb 82f 83f
12:48pm 11 14 mph 1010.8mb 82f 83f
12:42pm 6 9 mph 1010.8mb 82f 81f
12:36pm 7 10 mph 1010.8mb 82f 82f
12:30pm 7 9 mph 1010.8mb 82f 82f
12:24pm 7 11 mph 1010.8mb 82f 81f
12:18pm 11 14 mph 1010.9mb 82f 80f
12:12pm 8 10 mph 1010.8mb 82f 82f
12:06pm 2 5 mph 1010.8mb 82f 82f
12:00pm 5 9 mph 1010.9mb 82f 82f
11:54am 6 8 mph 1010.9mb 82f 82f
11:48am 8 9 mph 1010.9mb 82f 82f
11:42am 8 11 mph 1010.9mb 82f 82f
11:36am 7 13 mph 1011mb 82f 82f
11:30am 10 14 mph 1010.9mb 82f 81f
11:24am 7 15 mph 1011mb 82f 80f
11:18am 7 9 mph 1011mb 82f 81f
11:12am 13 17 mph 1011.1mb 82f 81f
11:00am 11 14 mph 1011.2mb 82f 82f
10:54am 14 15 mph 1011.1mb 82f 82f
10:48am 11 13 mph 1011.1mb 82f 82f
10:42am 10
mph
1011.2mb 82f 82f
10:36am 10
mph
1011.2mb 82f 82f
10:30am 6 9 mph 1011.2mb 82f 83f
10:24am 8 9 mph 1011mb 82f 82f
10:18am 9 10 mph 1011mb 82f 82f
10:12am 8 11 mph 1011.1mb 82f 82f
10:06am 9 11 mph 1010.9mb 82f 82f
9:30am 11 13 mph 1010.6mb 82f 82f
9:24am 11 13 mph 1010.5mb 82f 82f
9:18am 11 13 mph 1010.5mb 82f 82f
9:12am 10 13 mph 1010.5mb 82f 82f
9:06am 11 13 mph 1010.4mb 82f 82f
9:00am 10 11 mph 1010.5mb 82f 82f
8:54am 11 13 mph 1010.4mb 82f 82f
8:48am 10 11 mph 1010.3mb 82f 82f
8:42am 13
mph
1010.3mb 82f 82f
8:36am 11 13 mph 1010.3mb 82f 82f